Time;durP1;ratioP1;P1;durP2;ratioP2;P2;SDS_P1;SDS_P2;PMS_P1;PMS_P2;Temp;Humidity;BMP_temperature;BMP_pressure;BME280_temperature;BME280_humidity;BME280_pressure;Samples;Min_cycle;Max_cycle;Signal;HPM_P1;HPM_P2
2022/09/23 00:00:29;;;;;;;5.18;3.45;;;;;;;;;;5055984;28;20012;-86
2022/09/23 00:02:55;;;;;;;6.45;3.47;;;;;;;;;;5055724;28;20035;-87
2022/09/23 00:05:20;;;;;;;4.45;3.20;;;;;;;;;;5038393;28;20024;-87
2022/09/23 00:07:45;;;;;;;5.70;3.70;;;;;;;;;;5037749;28;20029;-87
2022/09/23 00:10:11;;;;;;;5.10;3.58;;;;;;;;;;5054555;28;20036;-87
2022/09/23 00:12:36;;;;;;;7.43;3.05;;;;;;;;;;5059411;28;20109;-88
2022/09/23 00:15:03;;;;;;;7.75;3.30;;;;;;;;;;5057800;28;20048;-88
2022/09/23 00:17:30;;;;;;;5.78;3.60;;;;;;;;;;5036768;28;20036;-86
2022/09/23 00:19:55;;;;;;;6.95;3.30;;;;;;;;;;5054720;28;20056;-87
2022/09/23 00:22:21;;;;;;;5.15;3.45;;;;;;;;;;5036390;28;20025;-86
2022/09/23 00:24:46;;;;;;;4.28;3.40;;;;;;;;;;5042613;28;20021;-87
2022/09/23 00:27:12;;;;;;;6.55;3.72;;;;;;;;;;5042930;28;20024;-86
2022/09/23 00:29:37;;;;;;;8.07;4.03;;;;;;;;;;5037068;28;20035;-86
2022/09/23 00:32:03;;;;;;;5.07;3.15;;;;;;;;;;5033694;28;20402;-86
2022/09/23 00:34:29;;;;;;;10.05;4.25;;;;;;;;;;5037390;28;20112;-85
2022/09/23 00:36:55;;;;;;;5.50;3.92;;;;;;;;;;5054550;28;20053;-87
2022/09/23 00:39:22;;;;;;;8.05;4.05;;;;;;;;;;5055173;28;20056;-86
2022/09/23 00:41:48;;;;;;;10.27;4.30;;;;;;;;;;5052211;28;20025;-86
2022/09/23 00:44:58;;;;;;;7.75;4.50;;;;;;;;;;5037727;28;20020;-88
2022/09/23 00:47:34;;;;;;;8.32;4.32;;;;;;;;;;5033201;28;20035;-86
2022/09/23 00:50:04;;;;;;;7.22;4.30;;;;;;;;;;5051895;28;20083;-86
2022/09/23 00:52:31;;;;;;;6.63;4.03;;;;;;;;;;5053526;28;20487;-86
2022/09/23 00:54:58;;;;;;;10.32;4.50;;;;;;;;;;5036618;28;20070;-86
2022/09/23 00:57:25;;;;;;;6.05;4.40;;;;;;;;;;5053327;28;20028;-86
2022/09/23 00:59:51;;;;;;;8.68;4.57;;;;;;;;;;5032999;28;20028;-88
2022/09/23 01:02:19;;;;;;;6.15;3.53;;;;;;;;;;5032816;28;20791;-85
2022/09/23 01:04:46;;;;;;;9.05;3.92;;;;;;;;;;5034900;28;20025;-86
2022/09/23 01:07:12;;;;;;;7.25;3.47;;;;;;;;;;5045283;28;20021;-88
2022/09/23 01:09:38;;;;;;;7.88;4.18;;;;;;;;;;5047392;28;20034;-87
2022/09/23 01:12:24;;;;;;;8.75;4.30;;;;;;;;;;5047130;28;20040;-87
2022/09/23 01:15:10;;;;;;;8.50;3.88;;;;;;;;;;5048469;28;20027;-88
2022/09/23 01:17:46;;;;;;;7.57;4.13;;;;;;;;;;5029335;28;20105;-87
2022/09/23 01:20:14;;;;;;;8.10;3.97;;;;;;;;;;5032146;28;20013;-87
2022/09/23 01:22:42;;;;;;;7.25;4.05;;;;;;;;;;5049943;28;20710;-86
2022/09/23 01:25:32;;;;;;;7.10;4.38;;;;;;;;;;5049303;28;21394;-87
2022/09/23 01:28:06;;;;;;;9.80;3.97;;;;;;;;;;5044314;28;20033;-87
2022/09/23 01:31:00;;;;;;;8.80;4.07;;;;;;;;;;5048629;28;20028;-87
2022/09/23 01:33:41;;;;;;;5.13;3.53;;;;;;;;;;5001264;28;20044;-86
2022/09/23 01:36:09;;;;;;;7.90;3.80;;;;;;;;;;5055471;28;20029;-86
2022/09/23 01:38:39;;;;;;;7.75;4.10;;;;;;;;;;5032257;28;20030;-86
2022/09/23 01:41:34;;;;;;;5.70;3.42;;;;;;;;;;5044198;28;20032;-88
2022/09/23 01:44:07;;;;;;;7.60;4.18;;;;;;;;;;5046405;28;20090;-87
2022/09/23 01:46:41;;;;;;;6.53;4.00;;;;;;;;;;5045202;28;20029;-88
2022/09/23 01:49:15;;;;;;;9.13;4.68;;;;;;;;;;5043655;28;20533;-86
2022/09/23 01:52:05;;;;;;;6.28;3.67;;;;;;;;;;5061328;28;20036;-88
2022/09/23 01:54:38;;;;;;;7.20;4.13;;;;;;;;;;5050273;28;20391;-86
2022/09/23 01:57:10;;;;;;;6.47;4.30;;;;;;;;;;5046850;28;20535;-85
2022/09/23 01:59:39;;;;;;;5.88;3.90;;;;;;;;;;5043351;28;20079;-88
2022/09/23 02:02:27;;;;;;;6.15;3.85;;;;;;;;;;5047060;28;20466;-89
2022/09/23 02:05:10;;;;;;;7.57;4.00;;;;;;;;;;5032901;28;20178;-87
2022/09/23 02:07:51;;;;;;;9.30;4.53;;;;;;;;;;5048064;28;20051;-86
2022/09/23 02:10:46;;;;;;;5.50;3.70;;;;;;;;;;5046631;28;20032;-87
2022/09/23 02:13:28;;;;;;;6.80;4.25;;;;;;;;;;5046994;28;20450;-86
2022/09/23 02:15:58;;;;;;;5.75;4.00;;;;;;;;;;5030021;28;20025;-86
2022/09/23 02:18:27;;;;;;;5.50;4.15;;;;;;;;;;5031181;28;20386;-86
2022/09/23 02:20:57;;;;;;;6.25;3.70;;;;;;;;;;5044028;28;20013;-87
2022/09/23 02:23:32;;;;;;;4.88;3.72;;;;;;;;;;5028583;28;20025;-86
2022/09/23 02:26:04;;;;;;;5.60;3.67;;;;;;;;;;5046240;28;20029;-87
2022/09/23 02:28:55;;;;;;;4.88;3.50;;;;;;;;;;5044151;28;20199;-86
2022/09/23 02:31:30;;;;;;;5.00;3.42;;;;;;;;;;5014390;28;20029;-86
2022/09/23 02:34:04;;;;;;;13.07;3.35;;;;;;;;;;5027936;28;20036;-86
2022/09/23 02:36:39;;;;;;;5.57;3.63;;;;;;;;;;5049503;28;20017;-87
2022/09/23 02:39:10;;;;;;;4.85;3.28;;;;;;;;;;5037509;28;20112;-89
2022/09/23 02:42:01;;;;;;;6.45;4.30;;;;;;;;;;5035710;28;20455;-88
2022/09/23 02:44:27;;;;;;;7.25;4.13;;;;;;;;;;5033421;28;20025;-88
2022/09/23 02:46:53;;;;;;;7.60;3.90;;;;;;;;;;5033981;28;20055;-88
2022/09/23 02:49:22;;;;;;;6.85;4.07;;;;;;;;;;5050469;28;20096;-88
2022/09/23 02:51:48;;;;;;;7.47;3.75;;;;;;;;;;5051681;28;20021;-87
2022/09/23 02:54:18;;;;;;;10.27;3.88;;;;;;;;;;5049627;28;20033;-89
2022/09/23 02:56:43;;;;;;;6.82;3.97;;;;;;;;;;5030991;28;20024;-89
2022/09/23 02:59:10;;;;;;;9.50;4.13;;;;;;;;;;5030104;28;20029;-89
2022/09/23 03:01:46;;;;;;;4.45;3.42;;;;;;;;;;5052263;28;20044;-90
2022/09/23 03:04:30;;;;;;;9.40;4.25;;;;;;;;;;5028039;28;20021;-89
2022/09/23 03:07:02;;;;;;;7.72;3.63;;;;;;;;;;5044260;28;20021;-90
2022/09/23 03:09:30;;;;;;;;;;;;;;;;;;5043803;28;20021;-88
2022/09/23 03:12:26;;;;;;;5.88;3.72;;;;;;;;;;5042702;28;19916;-89
2022/09/23 03:14:57;;;;;;;8.68;4.28;;;;;;;;;;5029309;28;20025;-90
2022/09/23 03:17:26;;;;;;;8.60;4.40;;;;;;;;;;5026166;28;20028;-88
2022/09/23 03:20:08;;;;;;;6.40;3.88;;;;;;;;;;5042228;28;20037;-88
2022/09/23 03:22:44;;;;;;;5.55;3.30;;;;;;;;;;5030457;28;20494;-87
2022/09/23 03:25:15;;;;;;;12.57;3.55;;;;;;;;;;5043702;28;20025;-86
2022/09/23 03:27:42;;;;;;;8.43;3.92;;;;;;;;;;5045506;28;20096;-86
2022/09/23 03:30:08;;;;;;;6.95;3.75;;;;;;;;;;5053425;28;20035;-87
2022/09/23 03:32:37;;;;;;;8.45;3.47;;;;;;;;;;5032255;28;20700;-86
2022/09/23 03:35:04;;;;;;;5.28;3.40;;;;;;;;;;5042624;28;20494;-86
2022/09/23 03:37:42;;;;;;;7.70;4.45;;;;;;;;;;5046157;28;20471;-86
2022/09/23 03:40:25;;;;;;;5.80;3.75;;;;;;;;;;5053842;28;21388;-86
2022/09/23 03:42:52;;;;;;;9.52;3.95;;;;;;;;;;5051648;28;20349;-86
2022/09/23 03:45:22;;;;;;;7.53;3.70;;;;;;;;;;5050843;28;20024;-87
2022/09/23 03:47:47;;;;;;;6.78;3.97;;;;;;;;;;5030487;28;20017;-87
2022/09/23 03:50:13;;;;;;;6.70;3.70;;;;;;;;;;5051082;28;20033;-88
2022/09/23 03:52:39;;;;;;;6.85;3.97;;;;;;;;;;5051816;28;20040;-87
2022/09/23 03:55:09;;;;;;;7.97;4.20;;;;;;;;;;5051186;28;20470;-86
2022/09/23 03:57:35;;;;;;;6.38;4.28;;;;;;;;;;5051762;28;20021;-87
2022/09/23 04:00:01;;;;;;;7.45;3.80;;;;;;;;;;5030872;28;20024;-87
2022/09/23 04:02:26;;;;;;;6.20;4.57;;;;;;;;;;5026626;28;20029;-87
2022/09/23 04:04:51;;;;;;;7.03;4.72;;;;;;;;;;5027922;28;20021;-87
2022/09/23 04:07:17;;;;;;;7.57;4.55;;;;;;;;;;5043264;28;20048;-86
2022/09/23 04:09:43;;;;;;;6.93;4.68;;;;;;;;;;5046177;28;20032;-85
2022/09/23 04:12:12;;;;;;;11.20;4.97;;;;;;;;;;5046504;28;20056;-87
2022/09/23 04:14:38;;;;;;;8.38;4.60;;;;;;;;;;5044830;28;20035;-86
2022/09/23 04:17:03;;;;;;;7.60;4.45;;;;;;;;;;5042266;28;20099;-86
2022/09/23 04:19:29;;;;;;;6.40;4.47;;;;;;;;;;5024792;28;20025;-87
2022/09/23 04:21:54;;;;;;;8.73;4.72;;;;;;;;;;5041589;28;20472;-86
2022/09/23 04:24:20;;;;;;;8.55;4.63;;;;;;;;;;5024440;28;20032;-86
2022/09/23 04:26:50;;;;;;;8.50;4.90;;;;;;;;;;5041893;28;20039;-86
2022/09/23 04:29:15;;;;;;;7.28;4.75;;;;;;;;;;5028517;28;20082;-87
2022/09/23 04:31:40;;;;;;;5.45;4.45;;;;;;;;;;5043706;28;20020;-86
2022/09/23 04:34:06;;;;;;;12.23;4.93;;;;;;;;;;5046412;28;20141;-88
2022/09/23 04:36:31;;;;;;;7.72;4.38;;;;;;;;;;5041905;28;20021;-88
2022/09/23 04:38:57;;;;;;;9.88;4.90;;;;;;;;;;5045724;28;20398;-87
2022/09/23 04:41:22;;;;;;;10.93;5.05;;;;;;;;;;5034298;28;20048;-87
2022/09/23 04:43:48;;;;;;;8.25;4.45;;;;;;;;;;5022795;28;20025;-87
2022/09/23 04:46:14;;;;;;;7.65;4.65;;;;;;;;;;5027668;28;20021;-86
2022/09/23 04:48:40;;;;;;;7.57;4.25;;;;;;;;;;5041974;28;20036;-86
2022/09/23 04:51:18;;;;;;;7.75;3.95;;;;;;;;;;5034656;28;20434;-87
2022/09/23 04:53:46;;;;;;;6.18;4.15;;;;;;;;;;5029937;28;20029;-87
2022/09/23 04:56:14;;;;;;;6.00;4.40;;;;;;;;;;5044255;28;20052;-87
2022/09/23 04:58:40;;;;;;;9.48;4.22;;;;;;;;;;5028016;28;20394;-88
2022/09/23 05:01:19;;;;;;;19.05;4.70;;;;;;;;;;5042191;28;20021;-87
2022/09/23 05:03:45;;;;;;;7.40;4.65;;;;;;;;;;5025906;28;20056;-87
2022/09/23 05:06:12;;;;;;;6.80;4.45;;;;;;;;;;5048068;28;20104;-88
2022/09/23 05:08:45;;;;;;;6.20;4.43;;;;;;;;;;5047913;28;20147;-87
2022/09/23 05:11:10;;;;;;;10.07;4.85;;;;;;;;;;5035171;28;20021;-87
2022/09/23 05:13:36;;;;;;;6.65;4.28;;;;;;;;;;5054787;28;20109;-87
2022/09/23 05:16:03;;;;;;;7.57;4.45;;;;;;;;;;5052770;28;20052;-87
2022/09/23 05:18:33;;;;;;;6.75;4.55;;;;;;;;;;5039129;28;20078;-87
2022/09/23 05:20:59;;;;;;;12.10;4.88;;;;;;;;;;5056317;28;20749;-88
2022/09/23 05:23:24;;;;;;;9.65;4.85;;;;;;;;;;5061720;28;20020;-87
2022/09/23 05:26:01;;;;;;;7.43;4.57;;;;;;;;;;5038302;28;20041;-87
2022/09/23 05:28:31;;;;;;;7.75;4.28;;;;;;;;;;5054641;28;20088;-87
2022/09/23 05:31:05;;;;;;;7.80;4.22;;;;;;;;;;5055624;28;20104;-85
2022/09/23 05:33:35;;;;;;;6.50;4.55;;;;;;;;;;5040719;28;20093;-86
2022/09/23 05:36:01;;;;;;;10.55;4.10;;;;;;;;;;5049696;28;20025;-88
2022/09/23 05:38:31;;;;;;;6.53;4.10;;;;;;;;;;5032113;28;20025;-88
2022/09/23 05:40:58;;;;;;;6.78;4.07;;;;;;;;;;5031696;28;20021;-86
2022/09/23 05:43:24;;;;;;;10.82;4.00;;;;;;;;;;5046510;28;20052;-87
2022/09/23 05:45:50;;;;;;;8.63;4.40;;;;;;;;;;5043682;28;20025;-86
2022/09/23 05:48:15;;;;;;;14.95;4.63;;;;;;;;;;5046502;28;20605;-86
2022/09/23 05:50:51;;;;;;;7.60;4.47;;;;;;;;;;5048361;28;20029;-87
2022/09/23 05:53:17;;;;;;;8.07;4.85;;;;;;;;;;5047537;28;20585;-88
2022/09/23 05:55:44;;;;;;;11.55;4.60;;;;;;;;;;5054608;28;20029;-86
2022/09/23 05:58:09;;;;;;;5.65;4.30;;;;;;;;;;5027748;28;20028;-89
2022/09/23 06:00:35;;;;;;;5.68;4.55;;;;;;;;;;5027725;28;20018;-88
2022/09/23 06:03:00;;;;;;;7.88;4.90;;;;;;;;;;5027093;28;20520;-87
2022/09/23 06:05:25;;;;;;;11.05;4.70;;;;;;;;;;5046676;28;20040;-89
2022/09/23 06:07:51;;;;;;;6.75;4.50;;;;;;;;;;5055399;28;20028;-87
2022/09/23 06:10:16;;;;;;;8.23;4.57;;;;;;;;;;5036368;28;20060;-88
2022/09/23 06:12:43;;;;;;;8.27;4.70;;;;;;;;;;5034735;28;20390;-89
2022/09/23 06:15:10;;;;;;;7.85;4.47;;;;;;;;;;5034697;28;20017;-88
2022/09/23 06:17:36;;;;;;;10.13;4.32;;;;;;;;;;5037961;28;20022;-89
2022/09/23 06:20:02;;;;;;;7.85;4.97;;;;;;;;;;5052307;28;20465;-87
2022/09/23 06:22:27;;;;;;;8.25;4.43;;;;;;;;;;5033427;28;20118;-88
2022/09/23 06:24:53;;;;;;;9.90;4.68;;;;;;;;;;5034531;28;20575;-88
2022/09/23 06:27:18;;;;;;;9.93;4.80;;;;;;;;;;5054453;28;20024;-88
2022/09/23 06:29:43;;;;;;;7.25;4.40;;;;;;;;;;5034326;28;20017;-88
2022/09/23 06:32:09;;;;;;;7.78;4.22;;;;;;;;;;5048559;28;20472;-88
2022/09/23 06:34:34;;;;;;;10.10;4.30;;;;;;;;;;5034249;28;20108;-87
2022/09/23 06:37:00;;;;;;;6.85;4.22;;;;;;;;;;5036352;28;20027;-88
2022/09/23 06:39:25;;;;;;;6.63;3.80;;;;;;;;;;5034588;28;20021;-88
2022/09/23 06:41:50;;;;;;;5.82;3.67;;;;;;;;;;5033389;28;20033;-88
2022/09/23 06:44:16;;;;;;;9.40;3.92;;;;;;;;;;5053492;28;20134;-88
2022/09/23 06:46:42;;;;;;;6.57;4.10;;;;;;;;;;5034493;28;20116;-87
2022/09/23 06:49:08;;;;;;;8.65;3.95;;;;;;;;;;5051889;28;20528;-87
2022/09/23 06:51:33;;;;;;;7.25;4.13;;;;;;;;;;5055069;28;20021;-86
2022/09/23 06:53:58;;;;;;;11.23;3.65;;;;;;;;;;5061499;28;20060;-88
2022/09/23 06:56:24;;;;;;;8.30;3.55;;;;;;;;;;5043166;28;20020;-88
2022/09/23 06:58:51;;;;;;;8.95;4.30;;;;;;;;;;5039803;28;20017;-88
2022/09/23 07:01:18;;;;;;;5.00;4.00;;;;;;;;;;5063459;28;20213;-85
2022/09/23 07:03:44;;;;;;;6.80;3.88;;;;;;;;;;5043742;28;20052;-87
2022/09/23 07:06:10;;;;;;;6.00;3.65;;;;;;;;;;5058635;28;20020;-85
2022/09/23 07:08:36;;;;;;;7.57;3.85;;;;;;;;;;5059091;28;20017;-87
2022/09/23 07:11:04;;;;;;;7.93;3.85;;;;;;;;;;5057849;28;20108;-85
2022/09/23 07:13:32;;;;;;;5.57;3.67;;;;;;;;;;5041349;28;20078;-87
2022/09/23 07:15:59;;;;;;;5.60;3.35;;;;;;;;;;5055688;28;20068;-86
2022/09/23 07:18:25;;;;;;;6.18;4.13;;;;;;;;;;5060861;28;20027;-85
2022/09/23 07:20:52;;;;;;;6.68;3.55;;;;;;;;;;5058767;28;20029;-87
2022/09/23 07:23:17;;;;;;;5.53;3.80;;;;;;;;;;5058821;28;20025;-86
2022/09/23 07:25:45;;;;;;;6.15;3.50;;;;;;;;;;5043732;28;20035;-87
2022/09/23 07:28:11;;;;;;;5.72;3.53;;;;;;;;;;5044317;28;20036;-85
2022/09/23 07:30:38;;;;;;;6.68;3.50;;;;;;;;;;5062616;28;20017;-85
2022/09/23 07:36:31;;;;;;;9.40;3.65;;;;;;;;;;4992436;28;20036;-85
2022/09/23 07:39:02;;;;;;;6.95;3.28;;;;;;;;;;4981692;28;20530;-86
2022/09/23 07:42:06;;;;;;;5.55;3.10;;;;;;;;;;4997489;28;20035;-85
2022/09/23 07:48:44;;;;;;;7.30;3.40;;;;;;;;;;4998490;28;20117;-86
2022/09/23 07:52:03;;;;;;;4.90;3.47;;;;;;;;;;4958171;29;20092;-86
2022/09/23 07:54:29;;;;;;;11.25;3.28;;;;;;;;;;5024028;28;20037;-87
2022/09/23 07:56:55;;;;;;;8.77;3.40;;;;;;;;;;5058438;28;20087;-88
2022/09/23 07:59:20;;;;;;;8.52;4.10;;;;;;;;;;5050084;28;20025;-87
2022/09/23 08:01:49;;;;;;;7.40;3.63;;;;;;;;;;5060004;28;20040;-85
2022/09/23 08:04:19;;;;;;;6.75;3.38;;;;;;;;;;5057281;28;20402;-85
2022/09/23 08:06:51;;;;;;;7.95;3.20;;;;;;;;;;5058951;28;20382;-85
2022/09/23 08:09:18;;;;;;;6.85;3.50;;;;;;;;;;5059748;28;20028;-85
2022/09/23 08:11:44;;;;;;;5.70;3.33;;;;;;;;;;5057938;28;20025;-85
2022/09/23 08:14:12;;;;;;;6.35;2.90;;;;;;;;;;5058033;28;20439;-85
2022/09/23 08:16:38;;;;;;;5.82;3.25;;;;;;;;;;5041125;28;20029;-85
2022/09/23 08:19:05;;;;;;;9.48;3.08;;;;;;;;;;5048015;28;20049;-85
2022/09/23 08:21:31;;;;;;;9.23;3.08;;;;;;;;;;5049294;28;20016;-85
2022/09/23 08:23:57;;;;;;;5.13;2.88;;;;;;;;;;5063730;28;20037;-85
2022/09/23 08:26:22;;;;;;;3.28;2.75;;;;;;;;;;5059528;28;20047;-86
2022/09/23 08:28:49;;;;;;;6.57;3.00;;;;;;;;;;5060016;28;20077;-85
2022/09/23 08:31:14;;;;;;;4.18;2.60;;;;;;;;;;5042993;28;20036;-85
2022/09/23 08:33:40;;;;;;;5.32;2.42;;;;;;;;;;5054532;28;20032;-84
2022/09/23 08:36:06;;;;;;;5.15;2.63;;;;;;;;;;5056448;28;20462;-84
2022/09/23 08:38:32;;;;;;;4.85;2.60;;;;;;;;;;5061101;28;20039;-85
2022/09/23 08:41:30;;;;;;;4.63;2.60;;;;;;;;;;5055772;28;20029;-85
2022/09/23 08:44:01;;;;;;;4.97;2.47;;;;;;;;;;5055694;28;20442;-85
2022/09/23 08:46:32;;;;;;;17.15;2.70;;;;;;;;;;5055366;28;20078;-85
2022/09/23 08:48:59;;;;;;;3.05;2.50;;;;;;;;;;5058799;28;20040;-83
2022/09/23 08:51:34;;;;;;;4.07;2.83;;;;;;;;;;5058309;28;20032;-84
2022/09/23 08:53:59;;;;;;;8.10;2.92;;;;;;;;;;5059880;28;20032;-84
2022/09/23 08:56:25;;;;;;;3.67;2.40;;;;;;;;;;5059497;28;20029;-84
2022/09/23 08:59:17;;;;;;;6.25;2.72;;;;;;;;;;5040678;28;20055;-83
2022/09/23 09:01:52;;;;;;;3.90;2.72;;;;;;;;;;5046273;28;20025;-84
2022/09/23 09:04:26;;;;;;;4.97;2.78;;;;;;;;;;5041178;28;20029;-84
2022/09/23 09:07:14;;;;;;;9.43;2.97;;;;;;;;;;5041405;28;20035;-84
2022/09/23 09:09:46;;;;;;;5.10;3.25;;;;;;;;;;5026135;28;20490;-84
2022/09/23 09:12:37;;;;;;;4.32;2.50;;;;;;;;;;5039729;28;20025;-84
2022/09/23 09:15:12;;;;;;;7.23;3.10;;;;;;;;;;5028653;28;20320;-84
2022/09/23 09:17:51;;;;;;;4.50;2.28;;;;;;;;;;5057230;28;20021;-84
2022/09/23 09:20:19;;;;;;;6.07;2.50;;;;;;;;;;5057426;28;20017;-84
2022/09/23 09:22:58;;;;;;;4.70;2.67;;;;;;;;;;5059278;28;20025;-84
2022/09/23 09:26:04;;;;;;;3.65;2.50;;;;;;;;;;5059326;28;20035;-85
2022/09/23 09:28:37;;;;;;;6.70;2.95;;;;;;;;;;5059343;28;20082;-84
2022/09/23 09:31:21;;;;;;;6.93;2.92;;;;;;;;;;5042044;28;20032;-83
2022/09/23 09:33:54;;;;;;;7.75;3.05;;;;;;;;;;5059772;28;20020;-85
2022/09/23 09:36:29;;;;;;;4.35;2.72;;;;;;;;;;5032013;28;20021;-84
2022/09/23 09:38:57;;;;;;;5.07;2.78;;;;;;;;;;5048271;28;20033;-85
2022/09/23 09:41:26;;;;;;;4.55;2.35;;;;;;;;;;5041770;28;20016;-85
2022/09/23 09:43:56;;;;;;;7.50;2.90;;;;;;;;;;5060916;28;20052;-85
2022/09/23 09:46:37;;;;;;;5.60;2.90;;;;;;;;;;5042979;28;20028;-86
2022/09/23 09:49:32;;;;;;;4.80;2.80;;;;;;;;;;5057956;28;20029;-84
2022/09/23 09:52:19;;;;;;;7.68;2.95;;;;;;;;;;5057259;28;20408;-86
2022/09/23 09:54:45;;;;;;;3.85;2.60;;;;;;;;;;5059022;28;20035;-86
2022/09/23 09:57:18;;;;;;;7.65;2.88;;;;;;;;;;5057616;28;20021;-84
2022/09/23 09:59:43;;;;;;;5.63;2.92;;;;;;;;;;5055633;28;20043;-84
2022/09/23 10:02:30;;;;;;;6.57;2.92;;;;;;;;;;5039164;28;20017;-82
2022/09/23 10:05:05;;;;;;;8.48;2.70;;;;;;;;;;5057204;28;20029;-82
2022/09/23 10:07:32;;;;;;;3.47;2.70;;;;;;;;;;5057324;28;20078;-82
2022/09/23 10:10:16;;;;;;;5.43;2.85;;;;;;;;;;5037455;28;20572;-83
2022/09/23 10:12:45;;;;;;;3.55;2.40;;;;;;;;;;5053491;28;20033;-84
2022/09/23 10:15:39;;;;;;;5.80;2.53;;;;;;;;;;5044162;28;20081;-83
2022/09/23 10:18:27;;;;;;;3.78;2.38;;;;;;;;;;5063636;28;20020;-82
2022/09/23 10:21:00;;;;;;;3.83;2.60;;;;;;;;;;5042921;28;20029;-82
2022/09/23 10:23:27;;;;;;;3.60;2.38;;;;;;;;;;5048598;28;20552;-82
2022/09/23 10:25:59;;;;;;;4.13;2.28;;;;;;;;;;5048672;28;20036;-83
2022/09/23 10:28:49;;;;;;;6.00;2.95;;;;;;;;;;5034468;28;20055;-83
2022/09/23 10:31:24;;;;;;;6.05;2.60;;;;;;;;;;5054268;28;20044;-82
2022/09/23 10:33:51;;;;;;;4.72;2.55;;;;;;;;;;5055662;28;20025;-84
2022/09/23 10:36:17;;;;;;;5.10;2.53;;;;;;;;;;5051332;28;20032;-82
2022/09/23 10:38:44;;;;;;;6.40;2.45;;;;;;;;;;5053192;28;20497;-83
2022/09/23 10:47:45;;;;;;;4.78;2.45;;;;;;;;;;5051361;28;20039;-83
2022/09/23 10:50:28;;;;;;;10.88;3.00;;;;;;;;;;5029446;28;20067;-83
2022/09/23 10:53:27;;;;;;;3.75;2.50;;;;;;;;;;5046642;28;20467;-82
2022/09/23 10:56:10;;;;;;;3.60;2.55;;;;;;;;;;5048546;28;20036;-82
2022/09/23 10:58:46;;;;;;;11.13;3.70;;;;;;;;;;5042888;28;20033;-81
2022/09/23 11:01:49;;;;;;;3.95;2.53;;;;;;;;;;5039325;28;20048;-82
2022/09/23 11:04:43;;;;;;;2.40;2.15;;;;;;;;;;4984524;28;20623;-82
2022/09/23 11:07:24;;;;;;;7.60;2.75;;;;;;;;;;4979073;28;20049;-82
2022/09/23 11:10:07;;;;;;;6.30;2.67;;;;;;;;;;5021599;28;20069;-82
2022/09/23 11:13:03;;;;;;;7.15;2.85;;;;;;;;;;5021659;28;20068;-83
2022/09/23 11:15:49;;;;;;;5.85;2.67;;;;;;;;;;5035571;28;20024;-83
2022/09/23 11:18:37;;;;;;;3.88;3.08;;;;;;;;;;5026605;28;20116;-83
2022/09/23 11:21:26;;;;;;;4.80;2.60;;;;;;;;;;5034621;28;20494;-82
2022/09/23 11:24:11;;;;;;;3.72;2.70;;;;;;;;;;5038173;28;20056;-82
2022/09/23 11:27:02;;;;;;;5.05;2.63;;;;;;;;;;5020221;28;20027;-83
2022/09/23 11:29:46;;;;;;;4.32;2.80;;;;;;;;;;5038966;28;20303;-83
2022/09/23 11:32:30;;;;;;;6.18;3.00;;;;;;;;;;5039266;28;20033;-82
2022/09/23 11:35:30;;;;;;;6.00;3.10;;;;;;;;;;5039244;28;20029;-83
2022/09/23 11:38:04;;;;;;;4.43;3.00;;;;;;;;;;5047373;28;20497;-82
2022/09/23 11:40:31;;;;;;;4.07;3.38;;;;;;;;;;5042979;28;20025;-81
2022/09/23 11:43:16;;;;;;;5.90;3.25;;;;;;;;;;5047120;28;20074;-82
2022/09/23 11:45:48;;;;;;;3.88;2.67;;;;;;;;;;5044976;28;20033;-82
2022/09/23 11:48:22;;;;;;;;;;;;;;;;;;5027378;28;20398;-82
2022/09/23 11:51:12;;;;;;;6.72;2.92;;;;;;;;;;5043173;28;19928;-84
2022/09/23 11:54:00;;;;;;;3.95;2.65;;;;;;;;;;5025834;28;21070;-83
2022/09/23 11:56:49;;;;;;;4.20;2.22;;;;;;;;;;5047263;28;20021;-87
2022/09/23 11:59:36;;;;;;;2.83;2.17;;;;;;;;;;5046745;28;20025;-86
2022/09/23 12:02:27;;;;;;;4.80;2.75;;;;;;;;;;5045354;28;20029;-85
2022/09/23 12:05:05;;;;;;;4.45;3.10;;;;;;;;;;5046393;28;20039;-86
2022/09/23 12:07:52;;;;;;;7.95;2.80;;;;;;;;;;5050310;28;20025;-86
2022/09/23 12:10:20;;;;;;;6.05;2.85;;;;;;;;;;5050834;28;20029;-85
2022/09/23 12:13:19;;;;;;;4.05;2.53;;;;;;;;;;5042960;28;20021;-86
2022/09/23 12:16:17;;;;;;;5.55;3.17;;;;;;;;;;5017590;28;20055;-85
2022/09/23 12:18:56;;;;;;;4.93;2.65;;;;;;;;;;5051532;28;20111;-86
2022/09/23 12:21:43;;;;;;;7.07;2.78;;;;;;;;;;5054822;28;20013;-85
2022/09/23 12:24:52;;;;;;;2.58;2.03;;;;;;;;;;5060283;28;20063;-85
2022/09/23 12:27:26;;;;;;;2.42;2.22;;;;;;;;;;4967441;28;20068;-86
2022/09/23 12:30:01;;;;;;;4.00;2.20;;;;;;;;;;5056608;28;20084;-86
2022/09/23 12:32:27;;;;;;;6.65;2.13;;;;;;;;;;5059755;28;20496;-85
2022/09/23 12:34:53;;;;;;;4.38;2.30;;;;;;;;;;5056128;28;20279;-84
2022/09/23 12:37:37;;;;;;;4.40;2.00;;;;;;;;;;5055762;28;20095;-85
2022/09/23 12:40:19;;;;;;;2.75;2.00;;;;;;;;;;5055289;28;20387;-84
2022/09/23 12:42:45;;;;;;;3.90;2.08;;;;;;;;;;5056044;28;20395;-85
2022/09/23 12:45:33;;;;;;;3.53;2.35;;;;;;;;;;5051054;28;20096;-84
2022/09/23 12:48:03;;;;;;;2.70;2.00;;;;;;;;;;5034902;28;20055;-85
2022/09/23 12:50:52;;;;;;;9.50;1.90;;;;;;;;;;5051890;28;20029;-85
2022/09/23 12:53:33;;;;;;;2.35;1.48;;;;;;;;;;5035193;28;20028;-84
2022/09/23 12:56:01;;;;;;;5.07;2.00;;;;;;;;;;5049055;28;20021;-84
2022/09/23 12:58:41;;;;;;;4.95;2.13;;;;;;;;;;5043950;28;20517;-83
2022/09/23 13:01:17;;;;;;;2.90;2.05;;;;;;;;;;5040608;28;20052;-84
2022/09/23 13:06:56;;;;;;;5.30;2.40;;;;;;;;;;5045434;28;20236;-85
2022/09/23 13:09:30;;;;;;;3.78;1.88;;;;;;;;;;5046989;28;20025;-85
2022/09/23 13:12:01;;;;;;;3.53;2.20;;;;;;;;;;5040827;28;20494;-84
2022/09/23 13:14:31;;;;;;;1.77;1.67;;;;;;;;;;5045012;28;20029;-83
2022/09/23 13:16:57;;;;;;;3.33;1.65;;;;;;;;;;5045297;28;20944;-83
2022/09/23 13:19:25;;;;;;;1.90;1.80;;;;;;;;;;5043235;28;20028;-84
2022/09/23 13:22:02;;;;;;;2.67;2.00;;;;;;;;;;5043080;28;20017;-84
2022/09/23 13:24:33;;;;;;;2.97;1.90;;;;;;;;;;5046208;28;20043;-84
2022/09/23 13:27:04;;;;;;;8.65;2.28;;;;;;;;;;5025148;28;20033;-84
2022/09/23 13:29:54;;;;;;;5.40;2.10;;;;;;;;;;5033575;28;20078;-83
2022/09/23 13:32:21;;;;;;;3.97;2.30;;;;;;;;;;5027772;28;20064;-85
2022/09/23 13:35:12;;;;;;;4.05;2.20;;;;;;;;;;5054603;28;20084;-84
2022/09/23 13:37:47;;;;;;;3.03;2.03;;;;;;;;;;5046751;28;20029;-84
2022/09/23 13:40:16;;;;;;;2.58;2.00;;;;;;;;;;5054927;28;20029;-85
2022/09/23 13:42:45;;;;;;;3.60;2.17;;;;;;;;;;5054601;28;20023;-84
2022/09/23 13:45:22;;;;;;;4.55;2.60;;;;;;;;;;5033757;28;20117;-83
2022/09/23 13:47:49;;;;;;;5.07;2.05;;;;;;;;;;5054133;28;20027;-84
2022/09/23 13:50:18;;;;;;;4.03;2.13;;;;;;;;;;5036438;28;20056;-84
2022/09/23 13:52:44;;;;;;;5.88;2.40;;;;;;;;;;5047221;28;20040;-84
2022/09/23 13:55:32;;;;;;;3.25;2.03;;;;;;;;;;5046697;28;20025;-84
2022/09/23 13:58:19;;;;;;;5.97;2.47;;;;;;;;;;5046246;28;20374;-85
2022/09/23 14:00:51;;;;;;;4.80;2.20;;;;;;;;;;5039537;28;20029;-83
2022/09/23 14:03:30;;;;;;;;;;;;;;;;;;5039215;28;20041;-83
2022/09/23 14:05:58;;;;;;;3.80;2.00;;;;;;;;;;5038118;28;19916;-84
2022/09/23 14:08:23;;;;;;;4.43;2.40;;;;;;;;;;5037910;28;20028;-83
2022/09/23 14:10:50;;;;;;;5.03;2.90;;;;;;;;;;5038537;28;20040;-83
2022/09/23 14:13:23;;;;;;;5.20;2.85;;;;;;;;;;5045182;28;20191;-85
2022/09/23 14:15:50;;;;;;;4.57;2.58;;;;;;;;;;5043537;28;20036;-84
2022/09/23 14:18:38;;;;;;;4.85;2.60;;;;;;;;;;5040210;28;20047;-85
2022/09/23 14:21:04;;;;;;;6.55;2.63;;;;;;;;;;5036737;28;20021;-85
2022/09/23 14:23:30;;;;;;;5.28;3.17;;;;;;;;;;5037737;28;20028;-84
2022/09/23 14:25:57;;;;;;;4.78;2.50;;;;;;;;;;5055739;28;20028;-84
2022/09/23 14:28:25;;;;;;;4.13;2.83;;;;;;;;;;5059604;28;20105;-83
2022/09/23 14:30:52;;;;;;;4.05;2.58;;;;;;;;;;5043317;28;20040;-83
2022/09/23 14:33:24;;;;;;;6.03;2.92;;;;;;;;;;5042758;28;20060;-84
2022/09/23 14:35:53;;;;;;;4.55;2.72;;;;;;;;;;5055757;28;20550;-84
2022/09/23 14:41:22;;;;;;;4.82;2.60;;;;;;;;;;5037444;28;20040;-85
2022/09/23 14:43:57;;;;;;;3.83;2.28;;;;;;;;;;5036841;28;20079;-85
2022/09/23 14:46:25;;;;;;;3.78;2.70;;;;;;;;;;5035207;28;20022;-85
2022/09/23 14:49:04;;;;;;;5.25;2.65;;;;;;;;;;5041418;28;20035;-85
2022/09/23 14:52:04;;;;;;;5.47;2.70;;;;;;;;;;5045110;28;20119;-85
2022/09/23 14:54:39;;;;;;;3.47;2.60;;;;;;;;;;5041295;28;20028;-84
2022/09/23 14:57:22;;;;;;;3.65;2.58;;;;;;;;;;5044778;28;20048;-85
2022/09/23 15:00:15;;;;;;;6.22;2.50;;;;;;;;;;5021168;28;20584;-85
2022/09/23 15:03:13;;;;;;;3.80;2.58;;;;;;;;;;5045252;28;20021;-85
2022/09/23 15:05:45;;;;;;;6.15;2.55;;;;;;;;;;5045648;28;20029;-85
2022/09/23 15:08:16;;;;;;;4.32;2.78;;;;;;;;;;5045483;28;20020;-85
2022/09/23 15:10:42;;;;;;;3.03;2.40;;;;;;;;;;5055464;28;20029;-84
2022/09/23 15:13:19;;;;;;;3.20;2.30;;;;;;;;;;5027127;28;20044;-84
2022/09/23 15:15:45;;;;;;;18.27;2.70;;;;;;;;;;5043956;28;20435;-85
2022/09/23 15:18:19;;;;;;;7.15;2.30;;;;;;;;;;5043249;28;20108;-84
2022/09/23 15:20:52;;;;;;;3.33;2.20;;;;;;;;;;5043501;28;20079;-84
2022/09/23 15:23:40;;;;;;;4.07;2.40;;;;;;;;;;5024885;28;20090;-85
2022/09/23 15:26:13;;;;;;;8.25;3.00;;;;;;;;;;5045574;28;20013;-85
2022/09/23 15:28:38;;;;;;;4.45;2.60;;;;;;;;;;5047745;28;20139;-83
2022/09/23 15:31:04;;;;;;;7.93;2.65;;;;;;;;;;5030627;28;20120;-85
2022/09/23 15:33:30;;;;;;;8.18;2.35;;;;;;;;;;5049444;28;20035;-85
2022/09/23 15:35:57;;;;;;;5.13;2.50;;;;;;;;;;5048896;28;20088;-85
2022/09/23 15:38:23;;;;;;;9.55;2.60;;;;;;;;;;5049385;28;20081;-85